Aviation Digital Data Service (ADDS)

Output produced by TAFs form (0452 UTC 30 March 2017)
found at http://www.aviationweather.gov/adds/tafs/
 
METAR text: RJKA 300400Z 21016KT 9999 FEW030 BKN100 23/17 Q1019
Conditions at: RJKA (AMAMI AIRPORT , JP) observed 0400 UTC 30 March 2017
Temperature: 23.0°C (73°F)
Dewpoint: 17.0°C (63°F) [RH = 69%]
Pressure (altimeter): 30.09 inches Hg (1019.0 mb)
Winds: from the SSW (210 degrees) at 18 MPH (16 knots; 8.3 m/s)
Visibility: 6 or more miles (10+ km)
Ceiling: 10000 feet AGL
Clouds: few clouds at 3000 feet AGL
broken clouds at 10000 feet AGL
Weather: no significant weather observed at this time